Tubize, Belgium
Current Conditions -  °F | °C
As of 10:25 AM on Monday 22 Dec 2014 (Local Time) from EBCV Reporting Station
Overcast Overcast  
Wind Chill: 41°   Ceiling: 1100
Heat Index: 48°   Visibility: 6mi
Dew Point: 45°   Wind: 20mph
Humidity: 87%   Direction: 220°SW
Pressure: 30.24"   Gusts: NA
Location:  50.69°N, 4.2°E
Report Text: EBCV 220925Z AUTO 22017KT 9999 OVC011/// 09/07 Q1024 GRN
Loading
Personal Weather Stations






























Interactive Weather Map New forecast layout! Learn more

10-Day Weather Forecast

Advertisements
Track Severe Weather on mobile